Time,TemperatureF,DewpointF,PressureIn,WindDirection,WindDirectionDegrees,WindSpeedMPH,WindSpeedGustMPH,Humidity,HourlyPrecipIn,Conditions,Clouds,dailyrainin,SoftwareType,DateUTC
2013-08-25 00:11:00,69.1,68.0,30.15,South,169,0.0,2.0,95,0.46,,,0.02,weatherlink.com 1.10,2013-08-25 05:11:00,
2013-08-25 00:26:00,69.1,68.0,30.14,NE,41,0.0,5.0,95,0.47,,,0.03,weatherlink.com 1.10,2013-08-25 05:26:00,
2013-08-25 00:41:00,69.0,68.0,30.12,NNE,29,1.0,3.0,96,0.20,,,0.06,weatherlink.com 1.10,2013-08-25 05:41:00,
2013-08-25 00:56:00,69.2,68.0,30.12,North,9,0.0,1.0,96,0.11,,,0.10,weatherlink.com 1.10,2013-08-25 05:56:00,
2013-08-25 01:11:00,69.2,68.0,30.14,ENE,63,2.0,4.0,96,0.11,,,0.13,weatherlink.com 1.10,2013-08-25 06:11:00,
2013-08-25 01:26:00,69.2,68.0,30.13,NNW,340,0.0,2.0,96,0.10,,,0.13,weatherlink.com 1.10,2013-08-25 06:26:00,
2013-08-25 01:41:00,69.2,68.0,30.13,North,359,0.0,2.0,96,0.07,,,0.13,weatherlink.com 1.10,2013-08-25 06:41:00,
2013-08-25 01:56:00,69.2,68.0,30.13,North,360,0.0,1.0,96,0.03,,,0.13,weatherlink.com 1.10,2013-08-25 06:56:00,
2013-08-25 02:11:00,69.1,68.0,30.12,North,359,1.0,1.0,96,0.00,,,0.13,weatherlink.com 1.10,2013-08-25 07:11:00,
2013-08-25 02:26:00,69.2,68.0,30.13,NW,324,0.0,1.0,96,0.00,,,0.13,weatherlink.com 1.10,2013-08-25 07:26:00,
2013-08-25 02:41:00,69.4,68.0,30.13,NNE,18,0.0,3.0,96,0.00,,,0.13,weatherlink.com 1.10,2013-08-25 07:41:00,
2013-08-25 02:56:00,69.5,68.0,30.13,NNE,18,0.0,1.0,96,0.00,,,0.13,weatherlink.com 1.10,2013-08-25 07:56:00,
2013-08-25 03:11:00,69.7,69.0,30.13,North,6,1.0,1.0,96,0.00,,,0.13,weatherlink.com 1.10,2013-08-25 08:11:00,
2013-08-25 03:26:00,69.6,69.0,30.14,NNW,345,0.0,1.0,96,0.00,,,0.13,weatherlink.com 1.10,2013-08-25 08:26:00,
2013-08-25 03:41:00,69.5,68.0,30.14,NNW,345,0.0,0.0,96,0.00,,,0.13,weatherlink.com 1.10,2013-08-25 08:41:00,
2013-08-25 03:56:00,69.6,69.0,30.13,NNW,345,0.0,1.0,96,0.00,,,0.13,weatherlink.com 1.10,2013-08-25 08:56:00,
2013-08-25 04:11:00,69.9,69.0,30.13,North,9,1.0,2.0,97,0.00,,,0.13,weatherlink.com 1.10,2013-08-25 09:11:00,
2013-08-25 04:26:00,70.3,69.0,30.13,NW,318,1.0,2.0,97,0.00,,,0.13,weatherlink.com 1.10,2013-08-25 09:26:00,
2013-08-25 04:41:00,70.6,70.0,30.14,NW,326,0.0,8.0,97,0.00,,,0.13,weatherlink.com 1.10,2013-08-25 09:41:00,
2013-08-25 04:56:00,70.9,70.0,30.14,ENE,76,2.0,4.0,97,0.00,,,0.13,weatherlink.com 1.10,2013-08-25 09:56:00,
2013-08-25 05:11:00,71.3,70.0,30.15,NNE,18,0.0,3.0,97,0.00,,,0.13,weatherlink.com 1.10,2013-08-25 10:11:00,
2013-08-25 05:26:00,71.7,71.0,30.15,NE,53,0.0,3.0,97,0.00,,,0.13,weatherlink.com 1.10,2013-08-25 10:26:00,
2013-08-25 05:41:00,72.1,71.0,30.15,ENE,74,1.0,6.0,97,0.00,,,0.13,weatherlink.com 1.10,2013-08-25 10:41:00,
2013-08-25 05:56:00,72.2,71.0,30.16,ENE,59,2.0,5.0,96,0.00,,,0.13,weatherlink.com 1.10,2013-08-25 10:56:00,
2013-08-25 06:11:00,72.5,71.0,30.16,East,93,2.0,9.0,96,0.00,,,0.13,weatherlink.com 1.10,2013-08-25 11:11:00,
2013-08-25 06:26:00,72.5,71.0,30.17,ENE,60,1.0,4.0,96,0.00,,,0.13,weatherlink.com 1.10,2013-08-25 11:26:00,
2013-08-25 06:41:00,72.6,71.0,30.16,ESE,108,2.0,4.0,96,0.00,,,0.13,weatherlink.com 1.10,2013-08-25 11:41:00,
2013-08-25 06:56:00,72.8,72.0,30.17,East,80,0.0,4.0,96,0.00,,,0.13,weatherlink.com 1.10,2013-08-25 11:56:00,
2013-08-25 07:11:00,72.9,72.0,30.17,ENE,60,3.0,5.0,96,0.00,,,0.13,weatherlink.com 1.10,2013-08-25 12:11:00,
2013-08-25 07:27:00,73.1,72.0,30.18,ESE,113,0.0,4.0,96,0.00,,,0.13,weatherlink.com 1.10,2013-08-25 12:27:00,
2013-08-25 07:42:00,73.4,72.0,30.18,North,360,0.0,5.0,95,0.00,,,0.13,weatherlink.com 1.10,2013-08-25 12:42:00,
2013-08-25 07:57:00,73.7,72.0,30.18,ENE,67,5.0,5.0,95,0.00,,,0.13,weatherlink.com 1.10,2013-08-25 12:57:00,
2013-08-25 08:12:00,74.2,72.0,30.18,SE,125,1.0,7.0,94,0.00,,,0.13,weatherlink.com 1.10,2013-08-25 13:12:00,
2013-08-25 08:27:00,74.2,72.0,30.19,ENE,65,7.0,8.0,93,0.00,,,0.13,weatherlink.com 1.10,2013-08-25 13:27:00,
2013-08-25 08:42:00,74.6,73.0,30.19,ENE,59,6.0,6.0,93,0.00,,,0.13,weatherlink.com 1.10,2013-08-25 13:42:00,
2013-08-25 08:57:00,75.3,73.0,30.20,NNW,329,3.0,4.0,93,0.00,,,0.13,weatherlink.com 1.10,2013-08-25 13:57:00,
2013-08-25 09:12:00,76.5,74.0,30.19,ENE,69,3.0,9.0,91,0.00,,,0.13,weatherlink.com 1.10,2013-08-25 14:12:00,
2013-08-25 09:27:00,77.4,74.0,30.19,ENE,71,4.0,11.0,89,0.00,,,0.13,weatherlink.com 1.10,2013-08-25 14:27:00,
2013-08-25 09:42:00,78.4,75.0,30.19,North,4,3.0,6.0,88,0.00,,,0.13,weatherlink.com 1.10,2013-08-25 14:42:00,
2013-08-25 09:57:00,78.0,74.0,30.19,ESE,104,0.0,9.0,88,0.00,,,0.13,weatherlink.com 1.10,2013-08-25 14:57:00,
2013-08-25 10:12:00,78.3,75.0,30.19,ENE,60,2.0,7.0,88,0.00,,,0.13,weatherlink.com 1.10,2013-08-25 15:12:00,
2013-08-25 10:27:00,79.0,75.0,30.19,ENE,71,0.0,10.0,86,0.00,,,0.13,weatherlink.com 1.10,2013-08-25 15:27:00,
2013-08-25 10:42:00,79.7,75.0,30.18,North,360,1.0,9.0,86,0.00,,,0.13,weatherlink.com 1.10,2013-08-25 15:42:00,
2013-08-25 10:57:00,80.8,75.0,30.18,ESE,103,4.0,8.0,82,0.00,,,0.13,weatherlink.com 1.10,2013-08-25 15:57:00,
2013-08-25 11:12:00,81.1,75.0,30.19,East,98,2.0,9.0,81,0.00,,,0.13,weatherlink.com 1.10,2013-08-25 16:12:00,
2013-08-25 11:27:00,81.5,76.0,30.19,ESE,108,1.0,11.0,82,0.00,,,0.13,weatherlink.com 1.10,2013-08-25 16:27:00,
2013-08-25 11:42:00,81.7,75.0,30.18,SE,143,2.0,7.0,80,0.00,,,0.13,weatherlink.com 1.10,2013-08-25 16:42:00,
2013-08-25 11:57:00,81.4,75.0,30.18,East,98,0.0,6.0,81,0.00,,,0.13,weatherlink.com 1.10,2013-08-25 16:57:00,
2013-08-25 12:12:00,82.6,76.0,30.18,NE,51,1.0,9.0,81,0.00,,,0.13,weatherlink.com 1.10,2013-08-25 17:12:00,
2013-08-25 12:27:00,82.5,76.0,30.17,NNW,329,1.0,9.0,80,0.00,,,0.13,weatherlink.com 1.10,2013-08-25 17:27:00,
2013-08-25 12:42:00,81.7,75.0,30.17,SE,139,0.0,7.0,80,0.00,,,0.13,weatherlink.com 1.10,2013-08-25 17:42:00,
2013-08-25 12:57:00,83.4,76.0,30.17,ESE,104,3.0,8.0,78,0.00,,,0.13,weatherlink.com 1.10,2013-08-25 17:57:00,
2013-08-25 13:12:00,83.8,76.0,30.16,ESE,108,1.0,8.0,77,0.00,,,0.13,weatherlink.com 1.10,2013-08-25 18:12:00,
2013-08-25 13:27:00,85.2,77.0,30.16,SE,137,4.0,7.0,75,0.00,,,0.13,weatherlink.com 1.10,2013-08-25 18:27:00,
2013-08-25 13:42:00,85.5,76.0,30.16,East,96,5.0,10.0,73,0.00,,,0.13,weatherlink.com 1.10,2013-08-25 18:42:00,
2013-08-25 13:58:00,85.1,75.0,30.15,ENE,63,3.0,9.0,72,0.00,,,0.13,weatherlink.com 1.10,2013-08-25 18:58:00,
2013-08-25 14:13:00,84.9,76.0,30.14,NE,50,6.0,7.0,75,0.00,,,0.13,weatherlink.com 1.10,2013-08-25 19:13:00,
2013-08-25 14:28:00,84.3,75.0,30.14,East,97,3.0,6.0,74,0.00,,,0.13,weatherlink.com 1.10,2013-08-25 19:28:00,
2013-08-25 14:43:00,83.9,76.0,30.14,NE,34,2.0,7.0,76,0.00,,,0.13,weatherlink.com 1.10,2013-08-25 19:43:00,
2013-08-25 14:58:00,84.7,75.0,30.14,NE,56,4.0,8.0,73,0.00,,,0.13,weatherlink.com 1.10,2013-08-25 19:58:00,
2013-08-25 15:13:00,85.2,75.0,30.13,East,81,1.0,7.0,72,0.00,,,0.13,weatherlink.com 1.10,2013-08-25 20:13:00,
2013-08-25 15:28:00,84.2,75.0,30.13,East,89,1.0,5.0,73,0.00,,,0.13,weatherlink.com 1.10,2013-08-25 20:28:00,
2013-08-25 15:43:00,84.3,75.0,30.13,NW,306,2.0,8.0,74,0.00,,,0.13,weatherlink.com 1.10,2013-08-25 20:43:00,
2013-08-25 15:58:00,85.4,76.0,30.13,East,89,1.0,4.0,73,0.00,,,0.13,weatherlink.com 1.10,2013-08-25 20:58:00,
2013-08-25 16:13:00,84.1,75.0,30.14,SE,124,1.0,4.0,73,0.00,,,0.13,weatherlink.com 1.10,2013-08-25 21:13:00,
2013-08-25 16:28:00,84.3,76.0,30.13,East,95,2.0,6.0,75,0.00,,,0.13,weatherlink.com 1.10,2013-08-25 21:28:00,
2013-08-25 16:43:00,85.0,75.0,30.13,NE,43,2.0,5.0,71,0.00,,,0.13,weatherlink.com 1.10,2013-08-25 21:43:00,
2013-08-25 16:58:00,83.7,76.0,30.13,NNW,336,0.0,4.0,77,0.00,,,0.13,weatherlink.com 1.10,2013-08-25 21:58:00,
2013-08-25 17:13:00,84.9,76.0,30.14,NNE,20,0.0,4.0,74,0.00,,,0.13,weatherlink.com 1.10,2013-08-25 22:13:00,
2013-08-25 17:28:00,83.9,74.0,30.14,ENE,64,3.0,5.0,73,0.00,,,0.13,weatherlink.com 1.10,2013-08-25 22:28:00,
2013-08-25 17:43:00,83.4,74.0,30.14,East,79,2.0,2.0,74,0.00,,,0.13,weatherlink.com 1.10,2013-08-25 22:43:00,
2013-08-25 17:58:00,83.4,75.0,30.14,NE,51,2.0,5.0,75,0.00,,,0.13,weatherlink.com 1.10,2013-08-25 22:58:00,
2013-08-25 18:13:00,81.7,75.0,30.14,East,94,0.0,1.0,79,0.00,,,0.13,weatherlink.com 1.10,2013-08-25 23:13:00,
2013-08-25 18:28:00,81.2,74.0,30.14,East,97,1.0,3.0,79,0.00,,,0.13,weatherlink.com 1.10,2013-08-25 23:28:00,
2013-08-25 18:43:00,80.5,73.0,30.14,NW,325,0.0,4.0,77,0.00,,,0.13,weatherlink.com 1.10,2013-08-25 23:43:00,
2013-08-25 18:58:00,79.7,73.0,30.15,NNE,27,0.0,4.0,80,0.00,,,0.13,weatherlink.com 1.10,2013-08-25 23:58:00,
2013-08-25 19:13:00,78.0,72.0,30.15,NNE,19,0.0,1.0,81,0.00,,,0.13,weatherlink.com 1.10,2013-08-26 00:13:00,
2013-08-25 19:28:00,76.5,71.0,30.15,NE,34,0.0,0.0,83,0.00,,,0.13,weatherlink.com 1.10,2013-08-26 00:28:00,
2013-08-25 19:43:00,75.1,71.0,30.16,ENE,63,0.0,0.0,88,0.00,,,0.13,weatherlink.com 1.10,2013-08-26 00:43:00,
2013-08-25 19:58:00,73.8,70.0,30.16,ENE,63,0.0,0.0,89,0.00,,,0.13,weatherlink.com 1.10,2013-08-26 00:58:00,
2013-08-25 20:13:00,73.4,70.0,30.17,ENE,58,0.0,0.0,89,0.00,,,0.13,weatherlink.com 1.10,2013-08-26 01:13:00,
2013-08-25 20:28:00,72.9,70.0,30.17,ENE,70,0.0,0.0,91,0.00,,,0.13,weatherlink.com 1.10,2013-08-26 01:28:00,
2013-08-25 20:43:00,72.6,70.0,30.18,ENE,67,0.0,1.0,92,0.00,,,0.13,weatherlink.com 1.10,2013-08-26 01:43:00,
2013-08-25 20:58:00,71.8,69.0,30.18,ENE,67,0.0,0.0,92,0.00,,,0.13,weatherlink.com 1.10,2013-08-26 01:58:00,
2013-08-25 21:13:00,71.8,69.0,30.19,ENE,70,0.0,0.0,92,0.00,,,0.13,weatherlink.com 1.10,2013-08-26 02:13:00,
2013-08-25 21:28:00,72.1,69.0,30.19,North,1,0.0,1.0,91,0.00,,,0.13,weatherlink.com 1.10,2013-08-26 02:28:00,
2013-08-25 21:43:00,71.7,69.0,30.19,North,1,0.0,0.0,92,0.00,,,0.13,weatherlink.com 1.10,2013-08-26 02:43:00,
2013-08-25 21:58:00,71.1,69.0,30.19,North,11,0.0,0.0,93,0.00,,,0.13,weatherlink.com 1.10,2013-08-26 02:58:00,
2013-08-25 22:13:00,70.5,69.0,30.19,WSW,250,0.0,0.0,94,0.00,,,0.13,weatherlink.com 1.10,2013-08-26 03:13:00,
2013-08-25 22:28:00,70.6,69.0,30.20,East,97,0.0,0.0,93,0.00,,,0.13,weatherlink.com 1.10,2013-08-26 03:28:00,
2013-08-25 22:43:00,71.5,69.0,30.20,WNW,301,0.0,2.0,91,0.00,,,0.13,weatherlink.com 1.10,2013-08-26 03:43:00,
2013-08-25 22:58:00,71.8,69.0,30.20,North,360,0.0,2.0,89,0.00,,,0.13,weatherlink.com 1.10,2013-08-26 03:58:00,
2013-08-25 23:13:00,71.7,68.0,30.20,NNE,14,0.0,1.0,89,0.00,,,0.13,weatherlink.com 1.10,2013-08-26 04:13:00,
2013-08-25 23:28:00,71.7,68.0,30.19,WSW,239,0.0,3.0,87,0.00,,,0.13,weatherlink.com 1.10,2013-08-26 04:28:00,
2013-08-25 23:43:00,72.0,68.0,30.19,North,1,0.0,2.0,86,0.00,,,0.13,weatherlink.com 1.10,2013-08-26 04:43:00,
2013-08-25 23:58:00,72.0,67.0,30.18,North,359,0.0,4.0,84,0.00,,,0.13,weatherlink.com 1.10,2013-08-26 04:58:00,